KMWM/MWM METAR and TAF weather

Enter ICAO airport designator
Station Type Date Time Source
KMWM METAR 2019/08/24 18:56 UTC NOAA

KMWM 241856Z AUTO 13013G18KT 10SM CLR 23/13 A3014 RMK AO2


Station Type Date Time Source
KMWM Decoded METAR 2019/08/24 18:56 UTC NOAA

Station name not available
Aug 24, 2019 - 02:56 PM EDT / 2019.08.24 1856 UTC
Wind: from the SE (130 degrees) at 15 MPH (13 KT) gusting to 21 MPH (18 KT):0
Visibility: 10 mile(s):0
Sky conditions: clear
Temperature: 73 F (23 C)
Dew Point: 55 F (13 C)
Relative Humidity: 53%
Pressure (altimeter): 30.14 in. Hg (1020 hPa)
ob: KMWM 241856Z AUTO 13013G18KT 10SM CLR 23/13 A3014 RMK AO2
cycle: 19

Station Type Date Time Source
KMWM TAF UTC NOAA

Error!

Example: see airport list